sensor_id;sensor_type;location;lat;lon;timestamp;P1;durP1;ratioP1;P2;durP2;ratioP2
76194;SDS011;64964;48.694;21.206;2023-03-26T00:01:09;6.72;;;3.60;;
76194;SDS011;64964;48.694;21.206;2023-03-26T00:03:39;6.13;;;3.47;;
76194;SDS011;64964;48.694;21.206;2023-03-26T00:06:08;5.57;;;3.57;;
76194;SDS011;64964;48.694;21.206;2023-03-26T00:08:38;4.88;;;3.30;;
76194;SDS011;64964;48.694;21.206;2023-03-26T00:11:05;6.28;;;3.50;;
76194;SDS011;64964;48.694;21.206;2023-03-26T00:13:32;7.75;;;3.85;;
76194;SDS011;64964;48.694;21.206;2023-03-26T00:15:58;6.53;;;3.77;;
76194;SDS011;64964;48.694;21.206;2023-03-26T00:18:24;6.53;;;3.78;;
76194;SDS011;64964;48.694;21.206;2023-03-26T00:20:57;7.80;;;4.50;;
76194;SDS011;64964;48.694;21.206;2023-03-26T00:23:24;6.22;;;4.32;;
76194;SDS011;64964;48.694;21.206;2023-03-26T00:25:51;6.72;;;4.10;;
76194;SDS011;64964;48.694;21.206;2023-03-26T00:28:17;7.17;;;4.00;;
76194;SDS011;64964;48.694;21.206;2023-03-26T00:30:45;6.65;;;4.10;;
76194;SDS011;64964;48.694;21.206;2023-03-26T00:33:12;7.13;;;4.30;;
76194;SDS011;64964;48.694;21.206;2023-03-26T00:35:41;8.88;;;5.00;;
76194;SDS011;64964;48.694;21.206;2023-03-26T00:38:14;7.32;;;5.03;;
76194;SDS011;64964;48.694;21.206;2023-03-26T00:40:39;9.17;;;4.90;;
76194;SDS011;64964;48.694;21.206;2023-03-26T00:43:12;7.82;;;5.32;;
76194;SDS011;64964;48.694;21.206;2023-03-26T00:45:47;8.00;;;5.57;;
76194;SDS011;64964;48.694;21.206;2023-03-26T00:48:18;9.73;;;6.13;;
76194;SDS011;64964;48.694;21.206;2023-03-26T00:50:44;10.82;;;6.40;;
76194;SDS011;64964;48.694;21.206;2023-03-26T00:53:11;10.83;;;6.43;;
76194;SDS011;64964;48.694;21.206;2023-03-26T00:55:38;10.98;;;6.45;;
76194;SDS011;64964;48.694;21.206;2023-03-26T00:58:04;10.63;;;6.18;;
76194;SDS011;64964;48.694;21.206;2023-03-26T01:00:30;11.43;;;6.50;;
76194;SDS011;64964;48.694;21.206;2023-03-26T01:03:02;10.77;;;6.75;;
76194;SDS011;64964;48.694;21.206;2023-03-26T01:07:58;9.13;;;6.00;;
76194;SDS011;64964;48.694;21.206;2023-03-26T01:10:39;11.30;;;6.47;;
76194;SDS011;64964;48.694;21.206;2023-03-26T01:13:05;10.97;;;6.43;;
76194;SDS011;64964;48.694;21.206;2023-03-26T01:15:31;8.90;;;6.15;;
76194;SDS011;64964;48.694;21.206;2023-03-26T01:17:57;13.60;;;7.00;;
76194;SDS011;64964;48.694;21.206;2023-03-26T01:20:23;12.63;;;6.63;;
76194;SDS011;64964;48.694;21.206;2023-03-26T01:22:56;11.75;;;7.00;;
76194;SDS011;64964;48.694;21.206;2023-03-26T01:25:26;10.52;;;6.47;;
76194;SDS011;64964;48.694;21.206;2023-03-26T01:27:58;13.25;;;7.50;;
76194;SDS011;64964;48.694;21.206;2023-03-26T01:33:22;10.83;;;6.43;;
76194;SDS011;64964;48.694;21.206;2023-03-26T01:46:54;12.27;;;6.80;;
76194;SDS011;64964;48.694;21.206;2023-03-26T01:49:22;12.38;;;6.30;;
76194;SDS011;64964;48.694;21.206;2023-03-26T01:51:47;13.70;;;6.83;;
76194;SDS011;64964;48.694;21.206;2023-03-26T01:54:18;14.00;;;6.88;;
76194;SDS011;64964;48.694;21.206;2023-03-26T02:05:16;11.27;;;6.50;;
76194;SDS011;64964;48.694;21.206;2023-03-26T02:07:46;11.23;;;6.30;;
76194;SDS011;64964;48.694;21.206;2023-03-26T02:10:23;12.73;;;6.28;;
76194;SDS011;64964;48.694;21.206;2023-03-26T02:12:51;11.52;;;6.25;;
76194;SDS011;64964;48.694;21.206;2023-03-26T02:15:17;11.48;;;6.85;;
76194;SDS011;64964;48.694;21.206;2023-03-26T02:17:43;11.80;;;6.97;;
76194;SDS011;64964;48.694;21.206;2023-03-26T02:20:09;11.93;;;6.22;;
76194;SDS011;64964;48.694;21.206;2023-03-26T02:22:38;11.50;;;6.23;;
76194;SDS011;64964;48.694;21.206;2023-03-26T02:25:08;13.30;;;6.55;;
76194;SDS011;64964;48.694;21.206;2023-03-26T02:27:35;12.35;;;6.65;;
76194;SDS011;64964;48.694;21.206;2023-03-26T02:30:01;10.75;;;6.35;;
76194;SDS011;64964;48.694;21.206;2023-03-26T02:32:28;13.23;;;6.47;;
76194;SDS011;64964;48.694;21.206;2023-03-26T02:34:54;10.33;;;6.07;;
76194;SDS011;64964;48.694;21.206;2023-03-26T02:37:19;10.53;;;6.30;;
76194;SDS011;64964;48.694;21.206;2023-03-26T02:39:44;14.67;;;7.30;;
76194;SDS011;64964;48.694;21.206;2023-03-26T02:42:10;15.18;;;7.22;;
76194;SDS011;64964;48.694;21.206;2023-03-26T02:44:35;13.57;;;7.07;;
76194;SDS011;64964;48.694;21.206;2023-03-26T02:47:04;12.60;;;6.70;;
76194;SDS011;64964;48.694;21.206;2023-03-26T02:49:29;12.43;;;6.60;;
76194;SDS011;64964;48.694;21.206;2023-03-26T02:51:55;11.57;;;6.80;;
76194;SDS011;64964;48.694;21.206;2023-03-26T02:54:21;12.15;;;6.38;;
76194;SDS011;64964;48.694;21.206;2023-03-26T02:56:47;12.38;;;6.78;;
76194;SDS011;64964;48.694;21.206;2023-03-26T02:59:12;12.27;;;6.30;;
76194;SDS011;64964;48.694;21.206;2023-03-26T03:01:38;12.15;;;6.18;;
76194;SDS011;64964;48.694;21.206;2023-03-26T03:04:07;14.38;;;6.10;;
76194;SDS011;64964;48.694;21.206;2023-03-26T03:06:34;10.80;;;6.38;;
76194;SDS011;64964;48.694;21.206;2023-03-26T03:09:02;10.82;;;6.53;;
76194;SDS011;64964;48.694;21.206;2023-03-26T03:11:29;10.50;;;6.07;;
76194;SDS011;64964;48.694;21.206;2023-03-26T03:13:54;13.95;;;6.97;;
76194;SDS011;64964;48.694;21.206;2023-03-26T03:16:20;13.33;;;6.60;;
76194;SDS011;64964;48.694;21.206;2023-03-26T03:18:46;16.08;;;7.82;;
76194;SDS011;64964;48.694;21.206;2023-03-26T03:21:18;14.52;;;7.05;;
76194;SDS011;64964;48.694;21.206;2023-03-26T03:23:44;15.60;;;7.70;;
76194;SDS011;64964;48.694;21.206;2023-03-26T03:26:11;15.45;;;8.02;;
76194;SDS011;64964;48.694;21.206;2023-03-26T03:28:39;16.17;;;8.50;;
76194;SDS011;64964;48.694;21.206;2023-03-26T03:31:05;17.93;;;8.60;;
76194;SDS011;64964;48.694;21.206;2023-03-26T03:33:32;18.42;;;9.02;;
76194;SDS011;64964;48.694;21.206;2023-03-26T03:35:58;15.73;;;7.60;;
76194;SDS011;64964;48.694;21.206;2023-03-26T03:38:23;15.90;;;7.75;;
76194;SDS011;64964;48.694;21.206;2023-03-26T03:40:49;15.20;;;7.03;;
76194;SDS011;64964;48.694;21.206;2023-03-26T03:43:15;10.23;;;5.77;;
76194;SDS011;64964;48.694;21.206;2023-03-26T03:45:40;14.35;;;5.68;;
76194;SDS011;64964;48.694;21.206;2023-03-26T03:48:06;12.07;;;4.70;;
76194;SDS011;64964;48.694;21.206;2023-03-26T03:50:31;8.03;;;3.83;;
76194;SDS011;64964;48.694;21.206;2023-03-26T03:52:57;6.05;;;3.20;;
76194;SDS011;64964;48.694;21.206;2023-03-26T03:55:23;6.97;;;3.45;;
76194;SDS011;64964;48.694;21.206;2023-03-26T03:57:51;7.00;;;3.67;;
76194;SDS011;64964;48.694;21.206;2023-03-26T04:00:17;8.00;;;3.78;;
76194;SDS011;64964;48.694;21.206;2023-03-26T04:02:43;9.80;;;4.43;;
76194;SDS011;64964;48.694;21.206;2023-03-26T04:05:10;9.93;;;4.70;;
76194;SDS011;64964;48.694;21.206;2023-03-26T04:07:36;10.70;;;5.00;;
76194;SDS011;64964;48.694;21.206;2023-03-26T04:10:03;11.50;;;5.32;;
76194;SDS011;64964;48.694;21.206;2023-03-26T04:12:30;12.20;;;5.18;;
76194;SDS011;64964;48.694;21.206;2023-03-26T04:14:56;12.63;;;5.80;;
76194;SDS011;64964;48.694;21.206;2023-03-26T04:17:22;13.05;;;5.72;;
76194;SDS011;64964;48.694;21.206;2023-03-26T04:19:49;11.57;;;5.68;;
76194;SDS011;64964;48.694;21.206;2023-03-26T04:22:17;9.23;;;4.75;;
76194;SDS011;64964;48.694;21.206;2023-03-26T04:24:43;10.20;;;5.10;;
76194;SDS011;64964;48.694;21.206;2023-03-26T04:27:13;9.77;;;4.67;;
76194;SDS011;64964;48.694;21.206;2023-03-26T04:29:43;9.38;;;4.75;;
76194;SDS011;64964;48.694;21.206;2023-03-26T04:32:21;9.90;;;5.13;;
76194;SDS011;64964;48.694;21.206;2023-03-26T04:34:50;9.50;;;5.22;;
76194;SDS011;64964;48.694;21.206;2023-03-26T04:37:32;9.70;;;5.10;;
76194;SDS011;64964;48.694;21.206;2023-03-26T04:40:00;8.77;;;4.70;;
76194;SDS011;64964;48.694;21.206;2023-03-26T04:42:37;8.20;;;4.60;;
76194;SDS011;64964;48.694;21.206;2023-03-26T04:45:09;9.27;;;4.53;;
76194;SDS011;64964;48.694;21.206;2023-03-26T04:47:35;7.03;;;3.92;;
76194;SDS011;64964;48.694;21.206;2023-03-26T04:50:03;7.50;;;4.33;;
76194;SDS011;64964;48.694;21.206;2023-03-26T04:52:30;9.68;;;4.30;;
76194;SDS011;64964;48.694;21.206;2023-03-26T04:54:56;9.90;;;4.50;;
76194;SDS011;64964;48.694;21.206;2023-03-26T04:57:28;9.27;;;4.17;;
76194;SDS011;64964;48.694;21.206;2023-03-26T04:59:58;8.23;;;4.78;;
76194;SDS011;64964;48.694;21.206;2023-03-26T05:02:24;9.13;;;4.53;;
76194;SDS011;64964;48.694;21.206;2023-03-26T05:04:50;10.17;;;4.90;;
76194;SDS011;64964;48.694;21.206;2023-03-26T05:07:17;8.82;;;4.45;;
76194;SDS011;64964;48.694;21.206;2023-03-26T05:09:44;7.68;;;3.85;;
76194;SDS011;64964;48.694;21.206;2023-03-26T05:12:10;8.97;;;4.27;;
76194;SDS011;64964;48.694;21.206;2023-03-26T05:14:35;9.30;;;4.67;;
76194;SDS011;64964;48.694;21.206;2023-03-26T05:17:01;9.40;;;5.00;;
76194;SDS011;64964;48.694;21.206;2023-03-26T05:19:29;11.27;;;5.43;;
76194;SDS011;64964;48.694;21.206;2023-03-26T05:21:55;12.43;;;5.57;;
76194;SDS011;64964;48.694;21.206;2023-03-26T05:24:21;9.17;;;5.10;;
76194;SDS011;64964;48.694;21.206;2023-03-26T05:26:48;8.95;;;4.57;;
76194;SDS011;64964;48.694;21.206;2023-03-26T05:29:14;6.18;;;3.92;;
76194;SDS011;64964;48.694;21.206;2023-03-26T05:31:41;8.87;;;3.90;;
76194;SDS011;64964;48.694;21.206;2023-03-26T05:34:06;6.32;;;3.92;;
76194;SDS011;64964;48.694;21.206;2023-03-26T05:36:32;7.97;;;4.23;;
76194;SDS011;64964;48.694;21.206;2023-03-26T05:38:57;12.37;;;4.57;;
76194;SDS011;64964;48.694;21.206;2023-03-26T05:41:23;10.30;;;4.90;;
76194;SDS011;64964;48.694;21.206;2023-03-26T05:43:48;10.40;;;4.70;;
76194;SDS011;64964;48.694;21.206;2023-03-26T05:46:14;11.23;;;5.03;;
76194;SDS011;64964;48.694;21.206;2023-03-26T05:48:40;11.23;;;5.20;;
76194;SDS011;64964;48.694;21.206;2023-03-26T05:51:05;9.37;;;4.50;;
76194;SDS011;64964;48.694;21.206;2023-03-26T05:53:32;9.52;;;4.47;;
76194;SDS011;64964;48.694;21.206;2023-03-26T05:55:57;11.65;;;4.40;;
76194;SDS011;64964;48.694;21.206;2023-03-26T05:58:26;12.00;;;5.63;;
76194;SDS011;64964;48.694;21.206;2023-03-26T06:00:55;11.95;;;5.45;;
76194;SDS011;64964;48.694;21.206;2023-03-26T06:03:27;11.03;;;5.63;;
76194;SDS011;64964;48.694;21.206;2023-03-26T06:05:52;14.23;;;6.40;;
76194;SDS011;64964;48.694;21.206;2023-03-26T06:08:18;11.97;;;6.47;;
76194;SDS011;64964;48.694;21.206;2023-03-26T06:10:44;16.13;;;6.78;;
76194;SDS011;64964;48.694;21.206;2023-03-26T06:13:10;13.05;;;5.95;;
76194;SDS011;64964;48.694;21.206;2023-03-26T06:15:36;10.57;;;5.20;;
76194;SDS011;64964;48.694;21.206;2023-03-26T06:18:01;12.13;;;5.18;;
76194;SDS011;64964;48.694;21.206;2023-03-26T06:20:26;11.30;;;5.70;;
76194;SDS011;64964;48.694;21.206;2023-03-26T06:22:52;12.00;;;4.87;;
76194;SDS011;64964;48.694;21.206;2023-03-26T06:25:17;9.80;;;4.47;;
76194;SDS011;64964;48.694;21.206;2023-03-26T06:27:43;11.93;;;4.75;;
76194;SDS011;64964;48.694;21.206;2023-03-26T06:30:09;10.25;;;4.05;;
76194;SDS011;64964;48.694;21.206;2023-03-26T06:32:35;10.57;;;4.82;;
76194;SDS011;64964;48.694;21.206;2023-03-26T06:35:01;10.00;;;5.40;;
76194;SDS011;64964;48.694;21.206;2023-03-26T06:37:26;9.27;;;5.07;;
76194;SDS011;64964;48.694;21.206;2023-03-26T06:39:51;10.87;;;4.83;;
76194;SDS011;64964;48.694;21.206;2023-03-26T06:42:17;7.57;;;5.13;;
76194;SDS011;64964;48.694;21.206;2023-03-26T06:44:42;7.88;;;4.35;;
76194;SDS011;64964;48.694;21.206;2023-03-26T06:47:07;7.13;;;4.07;;
76194;SDS011;64964;48.694;21.206;2023-03-26T06:49:33;7.37;;;4.40;;
76194;SDS011;64964;48.694;21.206;2023-03-26T06:51:58;10.60;;;6.80;;
76194;SDS011;64964;48.694;21.206;2023-03-26T06:54:26;9.80;;;5.85;;
76194;SDS011;64964;48.694;21.206;2023-03-26T06:56:51;10.13;;;5.90;;
76194;SDS011;64964;48.694;21.206;2023-03-26T06:59:17;10.93;;;5.40;;
76194;SDS011;64964;48.694;21.206;2023-03-26T07:01:42;9.60;;;5.37;;
76194;SDS011;64964;48.694;21.206;2023-03-26T07:04:08;9.50;;;5.68;;
76194;SDS011;64964;48.694;21.206;2023-03-26T07:06:33;8.73;;;5.03;;
76194;SDS011;64964;48.694;21.206;2023-03-26T07:08:58;10.27;;;5.67;;
76194;SDS011;64964;48.694;21.206;2023-03-26T07:11:24;12.30;;;5.87;;
76194;SDS011;64964;48.694;21.206;2023-03-26T07:13:50;10.80;;;5.68;;
76194;SDS011;64964;48.694;21.206;2023-03-26T07:16:16;10.47;;;5.80;;
76194;SDS011;64964;48.694;21.206;2023-03-26T07:18:41;11.00;;;5.60;;
76194;SDS011;64964;48.694;21.206;2023-03-26T07:21:07;12.67;;;5.80;;
76194;SDS011;64964;48.694;21.206;2023-03-26T07:23:33;13.55;;;5.55;;
76194;SDS011;64964;48.694;21.206;2023-03-26T07:25:59;7.40;;;3.90;;
76194;SDS011;64964;48.694;21.206;2023-03-26T07:28:37;8.40;;;4.15;;
76194;SDS011;64964;48.694;21.206;2023-03-26T07:34:20;5.95;;;2.90;;
76194;SDS011;64964;48.694;21.206;2023-03-26T07:37:07;5.27;;;2.80;;
76194;SDS011;64964;48.694;21.206;2023-03-26T07:40:00;4.95;;;2.03;;
76194;SDS011;64964;48.694;21.206;2023-03-26T07:43:02;6.95;;;2.20;;
76194;SDS011;64964;48.694;21.206;2023-03-26T07:45:50;4.63;;;2.10;;
76194;SDS011;64964;48.694;21.206;2023-03-26T07:48:22;3.92;;;2.40;;
76194;SDS011;64964;48.694;21.206;2023-03-26T07:50:49;4.07;;;2.60;;
76194;SDS011;64964;48.694;21.206;2023-03-26T07:53:15;3.15;;;1.90;;
76194;SDS011;64964;48.694;21.206;2023-03-26T08:07:11;5.25;;;1.73;;
76194;SDS011;64964;48.694;21.206;2023-03-26T08:09:58;2.67;;;1.60;;
76194;SDS011;64964;48.694;21.206;2023-03-26T08:12:54;2.03;;;1.23;;
76194;SDS011;64964;48.694;21.206;2023-03-26T08:15:31;1.50;;;1.40;;
76194;SDS011;64964;48.694;21.206;2023-03-26T08:18:20;2.00;;;1.33;;
76194;SDS011;64964;48.694;21.206;2023-03-26T08:21:07;2.42;;;1.50;;
76194;SDS011;64964;48.694;21.206;2023-03-26T08:23:56;3.03;;;1.42;;
76194;SDS011;64964;48.694;21.206;2023-03-26T08:31:48;1.40;;;1.17;;
76194;SDS011;64964;48.694;21.206;2023-03-26T08:34:13;3.30;;;1.40;;
76194;SDS011;64964;48.694;21.206;2023-03-26T08:36:39;2.07;;;1.40;;
76194;SDS011;64964;48.694;21.206;2023-03-26T08:39:05;1.50;;;1.10;;
76194;SDS011;64964;48.694;21.206;2023-03-26T09:06:51;2.58;;;1.17;;
76194;SDS011;64964;48.694;21.206;2023-03-26T09:26:46;2.07;;;1.40;;
76194;SDS011;64964;48.694;21.206;2023-03-26T09:37:59;1.85;;;0.93;;
76194;SDS011;64964;48.694;21.206;2023-03-26T09:54:38;2.33;;;1.20;;
76194;SDS011;64964;48.694;21.206;2023-03-26T10:00:33;1.48;;;1.30;;
76194;SDS011;64964;48.694;21.206;2023-03-26T10:03:29;4.20;;;1.27;;
76194;SDS011;64964;48.694;21.206;2023-03-26T10:06:12;3.17;;;1.15;;
76194;SDS011;64964;48.694;21.206;2023-03-26T10:09:09;2.83;;;1.20;;
76194;SDS011;64964;48.694;21.206;2023-03-26T10:11:59;1.52;;;0.98;;
76194;SDS011;64964;48.694;21.206;2023-03-26T10:14:42;1.30;;;0.95;;
76194;SDS011;64964;48.694;21.206;2023-03-26T10:17:37;4.50;;;1.20;;
76194;SDS011;64964;48.694;21.206;2023-03-26T10:28:08;1.63;;;0.90;;
76194;SDS011;64964;48.694;21.206;2023-03-26T10:39:49;1.25;;;1.00;;
76194;SDS011;64964;48.694;21.206;2023-03-26T10:43:13;2.45;;;1.00;;
76194;SDS011;64964;48.694;21.206;2023-03-26T10:45:43;1.70;;;0.90;;
76194;SDS011;64964;48.694;21.206;2023-03-26T10:54:29;2.03;;;0.93;;
76194;SDS011;64964;48.694;21.206;2023-03-26T10:57:05;1.85;;;1.02;;
76194;SDS011;64964;48.694;21.206;2023-03-26T10:59:41;2.85;;;1.30;;
76194;SDS011;64964;48.694;21.206;2023-03-26T11:07:26;1.50;;;0.93;;
76194;SDS011;64964;48.694;21.206;2023-03-26T11:12:31;2.23;;;1.00;;
76194;SDS011;64964;48.694;21.206;2023-03-26T11:20:19;1.42;;;0.95;;
76194;SDS011;64964;48.694;21.206;2023-03-26T11:34:44;1.95;;;1.00;;
76194;SDS011;64964;48.694;21.206;2023-03-26T11:37:14;2.05;;;0.88;;
76194;SDS011;64964;48.694;21.206;2023-03-26T11:39:48;0.97;;;0.80;;
76194;SDS011;64964;48.694;21.206;2023-03-26T11:42:17;2.17;;;0.90;;
76194;SDS011;64964;48.694;21.206;2023-03-26T11:44:48;2.40;;;1.00;;
76194;SDS011;64964;48.694;21.206;2023-03-26T11:47:19;1.45;;;0.80;;
76194;SDS011;64964;48.694;21.206;2023-03-26T11:49:50;1.02;;;0.80;;
76194;SDS011;64964;48.694;21.206;2023-03-26T11:52:19;1.50;;;1.07;;
76194;SDS011;64964;48.694;21.206;2023-03-26T11:54:45;2.95;;;0.90;;
76194;SDS011;64964;48.694;21.206;2023-03-26T11:57:18;2.65;;;0.85;;
76194;SDS011;64964;48.694;21.206;2023-03-26T11:59:59;1.77;;;1.00;;
76194;SDS011;64964;48.694;21.206;2023-03-26T12:02:40;1.67;;;0.90;;
76194;SDS011;64964;48.694;21.206;2023-03-26T12:07:52;1.27;;;0.90;;
76194;SDS011;64964;48.694;21.206;2023-03-26T12:13:27;2.83;;;1.00;;
76194;SDS011;64964;48.694;21.206;2023-03-26T12:16:05;2.30;;;1.00;;
76194;SDS011;64964;48.694;21.206;2023-03-26T12:18:34;3.03;;;0.90;;
76194;SDS011;64964;48.694;21.206;2023-03-26T12:21:12;1.42;;;0.93;;
76194;SDS011;64964;48.694;21.206;2023-03-26T12:26:16;2.67;;;0.90;;
76194;SDS011;64964;48.694;21.206;2023-03-26T12:28:43;0.98;;;0.88;;
76194;SDS011;64964;48.694;21.206;2023-03-26T12:31:10;2.37;;;0.90;;
76194;SDS011;64964;48.694;21.206;2023-03-26T12:33:44;0.70;;;0.70;;
76194;SDS011;64964;48.694;21.206;2023-03-26T12:36:27;1.50;;;0.80;;
76194;SDS011;64964;48.694;21.206;2023-03-26T12:38:57;1.50;;;0.90;;
76194;SDS011;64964;48.694;21.206;2023-03-26T12:41:35;1.70;;;0.80;;
76194;SDS011;64964;48.694;21.206;2023-03-26T12:44:13;1.15;;;0.80;;
76194;SDS011;64964;48.694;21.206;2023-03-26T12:46:47;1.73;;;0.95;;
76194;SDS011;64964;48.694;21.206;2023-03-26T12:49:14;2.53;;;1.10;;
76194;SDS011;64964;48.694;21.206;2023-03-26T12:51:52;2.13;;;0.90;;
76194;SDS011;64964;48.694;21.206;2023-03-26T12:57:17;1.25;;;0.90;;
76194;SDS011;64964;48.694;21.206;2023-03-26T13:17:03;1.75;;;0.90;;
76194;SDS011;64964;48.694;21.206;2023-03-26T13:22:27;1.58;;;0.82;;
76194;SDS011;64964;48.694;21.206;2023-03-26T13:25:13;1.48;;;0.88;;
76194;SDS011;64964;48.694;21.206;2023-03-26T13:27:44;1.10;;;0.80;;
76194;SDS011;64964;48.694;21.206;2023-03-26T13:35:42;1.63;;;0.80;;
76194;SDS011;64964;48.694;21.206;2023-03-26T13:38:18;1.08;;;0.70;;
76194;SDS011;64964;48.694;21.206;2023-03-26T13:46:34;1.23;;;0.80;;
76194;SDS011;64964;48.694;21.206;2023-03-26T13:49:18;1.60;;;0.80;;
76194;SDS011;64964;48.694;21.206;2023-03-26T13:51:56;0.60;;;0.60;;
76194;SDS011;64964;48.694;21.206;2023-03-26T13:54:31;1.10;;;0.70;;
76194;SDS011;64964;48.694;21.206;2023-03-26T13:59:35;4.03;;;0.70;;
76194;SDS011;64964;48.694;21.206;2023-03-26T14:02:07;0.80;;;0.80;;
76194;SDS011;64964;48.694;21.206;2023-03-26T14:04:43;1.95;;;0.95;;
76194;SDS011;64964;48.694;21.206;2023-03-26T14:07:15;1.57;;;0.90;;
76194;SDS011;64964;48.694;21.206;2023-03-26T14:09:52;3.42;;;1.10;;
76194;SDS011;64964;48.694;21.206;2023-03-26T14:15:05;1.52;;;0.82;;
76194;SDS011;64964;48.694;21.206;2023-03-26T14:17:50;1.15;;;0.70;;
76194;SDS011;64964;48.694;21.206;2023-03-26T14:23:55;1.00;;;0.80;;
76194;SDS011;64964;48.694;21.206;2023-03-26T14:40:46;1.98;;;0.70;;
76194;SDS011;64964;48.694;21.206;2023-03-26T14:46:12;0.82;;;0.70;;
76194;SDS011;64964;48.694;21.206;2023-03-26T14:48:46;1.47;;;0.90;;
76194;SDS011;64964;48.694;21.206;2023-03-26T14:54:59;1.40;;;0.70;;
76194;SDS011;64964;48.694;21.206;2023-03-26T15:02:45;1.93;;;1.07;;
76194;SDS011;64964;48.694;21.206;2023-03-26T15:05:40;1.20;;;0.80;;
76194;SDS011;64964;48.694;21.206;2023-03-26T15:19:28;1.15;;;0.95;;
76194;SDS011;64964;48.694;21.206;2023-03-26T15:41:57;2.03;;;0.63;;
76194;SDS011;64964;48.694;21.206;2023-03-26T15:45:12;1.47;;;0.90;;
76194;SDS011;64964;48.694;21.206;2023-03-26T15:50:45;1.65;;;0.95;;
76194;SDS011;64964;48.694;21.206;2023-03-26T15:55:58;2.30;;;0.90;;
76194;SDS011;64964;48.694;21.206;2023-03-26T16:04:14;1.88;;;0.70;;
76194;SDS011;64964;48.694;21.206;2023-03-26T16:14:43;3.33;;;0.80;;
76194;SDS011;64964;48.694;21.206;2023-03-26T16:17:17;3.63;;;1.00;;
76194;SDS011;64964;48.694;21.206;2023-03-26T16:19:48;2.03;;;0.88;;
76194;SDS011;64964;48.694;21.206;2023-03-26T16:27:40;3.90;;;0.77;;
76194;SDS011;64964;48.694;21.206;2023-03-26T16:33:31;1.65;;;0.93;;
76194;SDS011;64964;48.694;21.206;2023-03-26T16:38:22;2.22;;;0.77;;
76194;SDS011;64964;48.694;21.206;2023-03-26T16:43:37;1.83;;;0.85;;
76194;SDS011;64964;48.694;21.206;2023-03-26T16:48:43;1.17;;;0.90;;
76194;SDS011;64964;48.694;21.206;2023-03-26T16:54:14;1.70;;;1.20;;
76194;SDS011;64964;48.694;21.206;2023-03-26T16:56:46;4.20;;;1.20;;
76194;SDS011;64964;48.694;21.206;2023-03-26T16:59:30;3.15;;;1.83;;
76194;SDS011;64964;48.694;21.206;2023-03-26T17:02:15;4.15;;;1.70;;
76194;SDS011;64964;48.694;21.206;2023-03-26T17:04:57;3.05;;;1.80;;
76194;SDS011;64964;48.694;21.206;2023-03-26T17:07:33;3.13;;;1.77;;
76194;SDS011;64964;48.694;21.206;2023-03-26T17:10:20;4.35;;;1.90;;
76194;SDS011;64964;48.694;21.206;2023-03-26T17:13:06;3.13;;;2.03;;
76194;SDS011;64964;48.694;21.206;2023-03-26T17:21:25;2.63;;;1.70;;
76194;SDS011;64964;48.694;21.206;2023-03-26T17:32:22;2.67;;;1.88;;
76194;SDS011;64964;48.694;21.206;2023-03-26T17:37:30;3.80;;;1.80;;
76194;SDS011;64964;48.694;21.206;2023-03-26T17:42:26;3.23;;;1.93;;
76194;SDS011;64964;48.694;21.206;2023-03-26T17:45:20;3.35;;;1.70;;
76194;SDS011;64964;48.694;21.206;2023-03-26T17:47:55;5.50;;;2.20;;
76194;SDS011;64964;48.694;21.206;2023-03-26T17:50:26;4.07;;;1.52;;
76194;SDS011;64964;48.694;21.206;2023-03-26T17:52:57;5.35;;;1.77;;
76194;SDS011;64964;48.694;21.206;2023-03-26T17:55:42;4.13;;;1.83;;
76194;SDS011;64964;48.694;21.206;2023-03-26T17:58:29;4.90;;;1.63;;
76194;SDS011;64964;48.694;21.206;2023-03-26T18:03:39;4.93;;;2.22;;
76194;SDS011;64964;48.694;21.206;2023-03-26T18:06:12;4.72;;;2.13;;
76194;SDS011;64964;48.694;21.206;2023-03-26T18:11:52;5.22;;;1.95;;
76194;SDS011;64964;48.694;21.206;2023-03-26T18:14:51;3.78;;;1.83;;
76194;SDS011;64964;48.694;21.206;2023-03-26T18:17:19;3.63;;;1.60;;
76194;SDS011;64964;48.694;21.206;2023-03-26T18:19:46;3.27;;;1.50;;
76194;SDS011;64964;48.694;21.206;2023-03-26T18:22:22;2.72;;;1.40;;
76194;SDS011;64964;48.694;21.206;2023-03-26T18:24:50;2.22;;;1.27;;
76194;SDS011;64964;48.694;21.206;2023-03-26T18:27:20;4.45;;;1.77;;
76194;SDS011;64964;48.694;21.206;2023-03-26T18:32:22;1.23;;;1.10;;
76194;SDS011;64964;48.694;21.206;2023-03-26T18:35:00;1.95;;;1.30;;
76194;SDS011;64964;48.694;21.206;2023-03-26T18:37:37;2.33;;;1.27;;
76194;SDS011;64964;48.694;21.206;2023-03-26T18:42:35;3.03;;;1.30;;
76194;SDS011;64964;48.694;21.206;2023-03-26T18:45:05;2.25;;;1.05;;
76194;SDS011;64964;48.694;21.206;2023-03-26T18:47:40;2.33;;;1.10;;
76194;SDS011;64964;48.694;21.206;2023-03-26T18:50:12;3.22;;;1.15;;
76194;SDS011;64964;48.694;21.206;2023-03-26T18:52:40;1.83;;;0.90;;
76194;SDS011;64964;48.694;21.206;2023-03-26T18:55:09;1.00;;;0.90;;
76194;SDS011;64964;48.694;21.206;2023-03-26T18:57:37;2.20;;;1.02;;
76194;SDS011;64964;48.694;21.206;2023-03-26T19:00:21;1.13;;;1.03;;
76194;SDS011;64964;48.694;21.206;2023-03-26T19:02:50;1.70;;;1.20;;
76194;SDS011;64964;48.694;21.206;2023-03-26T19:05:23;3.63;;;1.30;;
76194;SDS011;64964;48.694;21.206;2023-03-26T19:07:52;1.40;;;1.20;;
76194;SDS011;64964;48.694;21.206;2023-03-26T19:10:19;22.60;;;12.98;;
76194;SDS011;64964;48.694;21.206;2023-03-26T19:12:56;23.52;;;12.07;;
76194;SDS011;64964;48.694;21.206;2023-03-26T19:15:23;17.02;;;9.05;;
76194;SDS011;64964;48.694;21.206;2023-03-26T19:17:55;15.63;;;8.30;;
76194;SDS011;64964;48.694;21.206;2023-03-26T19:20:28;15.13;;;7.77;;
76194;SDS011;64964;48.694;21.206;2023-03-26T19:22:57;43.13;;;19.55;;
76194;SDS011;64964;48.694;21.206;2023-03-26T19:25:24;26.10;;;12.32;;
76194;SDS011;64964;48.694;21.206;2023-03-26T19:27:53;21.38;;;10.10;;
76194;SDS011;64964;48.694;21.206;2023-03-26T19:30:25;12.87;;;7.33;;
76194;SDS011;64964;48.694;21.206;2023-03-26T19:32:59;9.00;;;5.38;;
76194;SDS011;64964;48.694;21.206;2023-03-26T19:35:26;7.78;;;4.03;;
76194;SDS011;64964;48.694;21.206;2023-03-26T19:38:00;5.88;;;3.50;;
76194;SDS011;64964;48.694;21.206;2023-03-26T19:40:36;3.90;;;1.70;;
76194;SDS011;64964;48.694;21.206;2023-03-26T19:43:09;14.97;;;5.20;;
76194;SDS011;64964;48.694;21.206;2023-03-26T19:45:36;65.32;;;24.45;;
76194;SDS011;64964;48.694;21.206;2023-03-26T19:48:01;59.20;;;22.73;;
76194;SDS011;64964;48.694;21.206;2023-03-26T19:50:32;19.58;;;9.65;;
76194;SDS011;64964;48.694;21.206;2023-03-26T19:53:10;12.02;;;4.90;;
76194;SDS011;64964;48.694;21.206;2023-03-26T19:55:41;14.35;;;7.35;;
76194;SDS011;64964;48.694;21.206;2023-03-26T19:58:17;29.50;;;13.98;;
76194;SDS011;64964;48.694;21.206;2023-03-26T20:00:43;8.73;;;3.97;;
76194;SDS011;64964;48.694;21.206;2023-03-26T20:03:09;5.30;;;2.50;;
76194;SDS011;64964;48.694;21.206;2023-03-26T20:05:34;5.80;;;2.50;;
76194;SDS011;64964;48.694;21.206;2023-03-26T20:08:01;6.55;;;3.05;;
76194;SDS011;64964;48.694;21.206;2023-03-26T20:10:36;3.57;;;2.23;;
76194;SDS011;64964;48.694;21.206;2023-03-26T20:13:02;6.45;;;2.55;;
76194;SDS011;64964;48.694;21.206;2023-03-26T20:15:28;5.17;;;2.97;;
76194;SDS011;64964;48.694;21.206;2023-03-26T20:17:57;4.28;;;2.50;;
76194;SDS011;64964;48.694;21.206;2023-03-26T20:20:23;5.13;;;2.50;;
76194;SDS011;64964;48.694;21.206;2023-03-26T20:22:50;4.78;;;2.33;;
76194;SDS011;64964;48.694;21.206;2023-03-26T20:25:22;4.30;;;2.58;;
76194;SDS011;64964;48.694;21.206;2023-03-26T20:27:51;5.30;;;2.80;;
76194;SDS011;64964;48.694;21.206;2023-03-26T20:30:19;5.43;;;2.67;;
76194;SDS011;64964;48.694;21.206;2023-03-26T20:32:45;5.13;;;2.67;;